Sines, Portugal

6:53 PM WET on January 31, 2015 (GMT +0000)
Sines - ZIL2 | Change Station
CLOSE
Current Station
Personal Weather Station
Location: Sines, SET�BAL
Elevation: 167 ft
Nearby Weather Stations

Elev 167 ft 37.96 °N, 8.85 °W | Updated 6 minutes ago

Partly Cloudy
Partly Cloudy
51.7 °F
Feels Like 51.7 °F
N
16.0
Wind Variable Wind from North
Gusts 27.0 mph

Today
High -- | Low -- °F
--% Chance of Precip.
Yesterday
High -- | Low -- °F
Precip. -- in
7:41 AM 5:57 PM
Waxing Gibbous, 91% visible
Pressure 29.98 in
Visibility 6.2 miles
Clouds Few 2000 ft
Dew Point 44 °F
Humidity 76%
Rainfall 0.05 in
Snow Depth Not available.
UV 0 out of 12
Pollen Not available.
Air Quality Not available.
Flu Activity Not available.
METAR LPPT 311830Z 34008KT 9999 FEW020 09/06 Q1015 WS R03

More Conditions Fewer Conditions

Pressure 29.98 in
Visibility 6.2 miles
Clouds Few 2000 ft
Dew Point 44 °F
Humidity 76%
Rainfall 0.05 in
Snow Depth Not available.
UV 0 out of 12
Pollen Not available.
Air Quality Not available.
Flu Activity Not available.
METAR LPPT 311830Z 34008KT 9999 FEW020 09/06 Q1015 WS R03

More Conditions Fewer Conditions

10-Day Weather Forecast

Almanac

Astronomy

Jan. 31, 2015 Rise Set
Actual Time
Civil Twilight
Nautical Twilight
Astronomical Twilight
Moon
Length of Visible Light
Length of Day
Tomorrow will be .
, % of the Moon is Illuminated

Today's Extremes

Country Highs Country Lows

Community

WunderPhotos

Upload Photos

1,792,149 photos uploaded!

WunderBlogs® & News

Nearby

Air Quality

  Air Quality AQ Index Pollutant
Not available.

Snow Depth

Station Depth Elevation

Earthquake Activity

City Distance Mag. Time & Date
Minimum magnitude displayed is 2.5.

Coastal Water Temperatures

Place Temperature

Nearby Weather Stations